Terminal Aerodrome Forecast
Issued by NWS

Home | Current Version | Previous Version | Text Only | Print | Product List | Glossary On
Versions: 1 2 3 4 5 6 7 8 9 10 11 12 13 14 15 16
024
FTUS41 KBTV 262327
TAFMPV
TAF
KMPV 262327Z 2700/2724 00000KT P6SM SCT008 OVC020
      TEMPO 2700/2704 4SM BR BKN008
     FM270600 13005KT P6SM BKN020
     FM271400 16010G20KT P6SM OVC025=

USA.gov is the U.S. government's official web portal to all federal, state and local government web resources and services.